Time;durP1;ratioP1;P1;durP2;ratioP2;P2;SDS_P1;SDS_P2;PMS_P1;PMS_P2;Temp;Humidity;BMP_temperature;BMP_pressure;BME280_temperature;BME280_humidity;BME280_pressure;Samples;Min_cycle;Max_cycle;Signal;HPM_P1;HPM_P2
2023/12/28 00:02:13;;;;;;;;;;;-2.50;99.90;;;;;;5053639;28;19979;-65
2023/12/28 00:04:40;;;;;;;;;;;-2.40;99.90;;;;;;5050877;28;19940;-58
2023/12/28 00:07:07;;;;;;;;;;;-2.40;99.90;;;;;;5047573;28;19928;-60
2023/12/28 00:09:34;;;;;;;;;;;-2.40;99.90;;;;;;5052764;28;19928;-59
2023/12/28 00:12:00;;;;;;;;;;;-2.40;99.90;;;;;;5054398;28;19925;-58
2023/12/28 00:14:27;;;;;;;;;;;-2.40;99.90;;;;;;5054970;28;20718;-60
2023/12/28 00:16:54;;;;;;;;;;;-2.40;99.90;;;;;;5061879;28;19956;-59
2023/12/28 00:19:21;;;;;;;;;;;-2.40;99.90;;;;;;5054876;28;20260;-66
2023/12/28 00:21:48;;;;;;;;;;;-2.30;99.90;;;;;;5052662;28;19929;-59
2023/12/28 00:24:16;;;;;;;;;;;-2.30;99.90;;;;;;5052042;28;19933;-65
2023/12/28 00:26:43;;;;;;;;;;;-2.30;99.90;;;;;;5052259;28;20585;-58
2023/12/28 00:29:11;;;;;;;;;;;-2.30;99.90;;;;;;5051594;28;20361;-59
2023/12/28 00:31:38;;;;;;;;;;;-2.30;99.90;;;;;;5049787;28;19998;-59
2023/12/28 00:34:05;;;;;;;;;;;-2.30;99.90;;;;;;5062321;28;19938;-61
2023/12/28 00:36:32;;;;;;;;;;;-2.30;99.90;;;;;;5053730;28;20470;-58
2023/12/28 00:38:59;;;;;;;;;;;-2.30;99.90;;;;;;5053876;28;19932;-65
2023/12/28 00:41:25;;;;;;;;;;;-2.30;99.90;;;;;;5053198;28;19952;-59
2023/12/28 00:43:52;;;;;;;;;;;-2.20;99.90;;;;;;5056679;28;19991;-59
2023/12/28 00:46:20;;;;;;;;;;;-2.20;99.90;;;;;;5069557;28;19960;-63
2023/12/28 00:48:47;;;;;;;;;;;-2.20;99.90;;;;;;5055473;28;19935;-59
2023/12/28 00:51:14;;;;;;;;;;;-2.20;99.90;;;;;;5051326;28;19980;-59
2023/12/28 00:53:41;;;;;;;;;;;-2.20;99.90;;;;;;5050149;28;19929;-61
2023/12/28 00:56:09;;;;;;;;;;;-2.20;99.90;;;;;;5049435;28;20010;-58
2023/12/28 00:58:38;;;;;;;;;;;-2.20;99.90;;;;;;5056606;28;19997;-58
2023/12/28 01:01:05;;;;;;;;;;;-2.10;99.90;;;;;;5058099;28;19925;-65
2023/12/28 01:03:32;;;;;;;;;;;-2.10;99.90;;;;;;5062209;28;19946;-58
2023/12/28 01:05:59;;;;;;;;;;;-2.10;99.90;;;;;;5049891;28;20027;-59
2023/12/28 01:08:26;;;;;;;;;;;-2.10;99.90;;;;;;5056280;28;20314;-61
2023/12/28 01:10:52;;;;;;;;;;;-2.10;99.90;;;;;;5050957;28;20346;-61
2023/12/28 01:13:19;;;;;;;;;;;-2.10;99.90;;;;;;5083251;28;19970;-61
2023/12/28 01:15:46;;;;;;;;;;;-2.10;99.90;;;;;;5049988;28;19998;-62
2023/12/28 01:18:13;;;;;;;;;;;-2.00;99.90;;;;;;5050081;28;19929;-58
2023/12/28 01:20:40;;;;;;;;;;;-2.00;99.90;;;;;;5057383;28;19979;-60
2023/12/28 01:23:06;;;;;;;;;;;-2.00;99.90;;;;;;5052325;28;19956;-66
2023/12/28 01:25:34;;;;;;;;;;;-2.00;99.90;;;;;;5053147;28;20421;-59
2023/12/28 01:28:02;;;;;;;;;;;-1.90;99.90;;;;;;5050605;28;19929;-63
2023/12/28 01:30:29;;;;;;;;;;;-1.90;99.90;;;;;;5056773;28;20162;-65
2023/12/28 01:32:56;;;;;;;;;;;-1.90;99.90;;;;;;5053753;28;19934;-62
2023/12/28 01:35:23;;;;;;;;;;;-1.90;99.90;;;;;;5051202;28;20006;-59
2023/12/28 01:37:49;;;;;;;;;;;-1.80;99.90;;;;;;5052812;28;20449;-64
2023/12/28 01:40:17;;;;;;;;;;;-1.80;99.90;;;;;;5047950;28;22002;-61
2023/12/28 01:42:44;;;;;;;;;;;-1.80;99.90;;;;;;5047445;28;19967;-61
2023/12/28 01:45:11;;;;;;;;;;;-1.80;99.90;;;;;;5055153;28;20005;-61
2023/12/28 01:47:39;;;;;;;;;;;-1.70;99.90;;;;;;5060859;28;19978;-63
2023/12/28 01:50:07;;;;;;;;;;;-1.70;99.90;;;;;;5084241;28;19960;-59
2023/12/28 01:52:34;;;;;;;;;;;-1.70;99.90;;;;;;5053732;28;19929;-61
2023/12/28 01:55:02;;;;;;;;;;;-1.70;99.90;;;;;;5052320;28;19932;-61
2023/12/28 01:57:29;;;;;;;;;;;-1.60;99.90;;;;;;5051417;28;19947;-64
2023/12/28 01:59:58;;;;;;;;;;;-1.60;99.90;;;;;;5059187;28;19939;-62
2023/12/28 02:02:25;;;;;;;;;;;-1.60;99.90;;;;;;5049344;28;20365;-59
2023/12/28 02:04:52;;;;;;;;;;;-1.60;99.90;;;;;;5046537;28;19929;-61
2023/12/28 02:07:20;;;;;;;;;;;-1.60;99.90;;;;;;5054655;28;19932;-62
2023/12/28 02:09:47;;;;;;;;;;;-1.60;99.90;;;;;;5058172;28;19928;-59
2023/12/28 02:12:14;;;;;;;;;;;-1.60;99.90;;;;;;5049741;28;19928;-66
2023/12/28 02:14:41;;;;;;;;;;;-1.60;99.90;;;;;;5053587;28;20355;-61
2023/12/28 02:17:12;;;;;;;;;;;-1.60;99.90;;;;;;5054963;28;20039;-59
2023/12/28 02:19:43;;;;;;;;;;;-1.60;99.90;;;;;;5048693;28;19975;-57
2023/12/28 02:22:13;;;;;;;;;;;-1.60;99.90;;;;;;5050787;28;19928;-60
2023/12/28 02:24:55;;;;;;;;;;;-1.50;99.90;;;;;;5048400;28;19933;-61
2023/12/28 02:27:22;;;;;;;;;;;-1.50;99.90;;;;;;5048029;28;19971;-58
2023/12/28 02:29:49;;;;;;;;;;;-1.50;99.90;;;;;;5062741;28;19951;-61
2023/12/28 02:32:17;;;;;;;;;;;-1.50;99.90;;;;;;5051017;28;19979;-61
2023/12/28 02:34:44;;;;;;;;;;;-1.50;99.90;;;;;;5057550;28;19997;-58
2023/12/28 02:37:13;;;;;;;;;;;-1.50;99.90;;;;;;5053934;28;20030;-60
2023/12/28 02:39:41;;;;;;;;;;;-1.40;99.90;;;;;;5056602;28;19932;-60
2023/12/28 02:42:08;;;;;;;;;;;-1.40;99.90;;;;;;5051312;28;20023;-58
2023/12/28 02:44:35;;;;;;;;;;;-1.40;99.90;;;;;;5050363;28;19964;-60
2023/12/28 02:47:02;;;;;;;;;;;-1.40;99.90;;;;;;5046632;28;19929;-64
2023/12/28 02:49:29;;;;;;;;;;;-1.40;99.90;;;;;;5047963;28;19966;-59
2023/12/28 02:51:56;;;;;;;;;;;-1.40;99.90;;;;;;5048889;28;19925;-64
2023/12/28 02:54:23;;;;;;;;;;;-1.40;99.90;;;;;;5054004;28;20023;-59
2023/12/28 02:56:50;;;;;;;;;;;-1.30;99.90;;;;;;5056094;28;20389;-59
2023/12/28 02:59:16;;;;;;;;;;;-1.40;99.90;;;;;;5049404;28;20434;-61
2023/12/28 03:01:43;;;;;;;;;;;-1.40;99.90;;;;;;5046544;28;20467;-59
2023/12/28 03:04:10;;;;;;;;;;;-1.40;99.90;;;;;;5053591;28;19929;-59
2023/12/28 03:06:39;;;;;;;;;;;-1.40;99.90;;;;;;5049832;28;19933;-61
2023/12/28 03:09:06;;;;;;;;;;;-1.40;99.90;;;;;;5052039;28;19935;-59
2023/12/28 03:11:33;;;;;;;;;;;-1.40;99.90;;;;;;5052204;28;19929;-59
2023/12/28 03:14:01;;;;;;;;;;;-1.40;99.90;;;;;;5049219;28;19929;-60
2023/12/28 03:16:28;;;;;;;;;;;-1.30;99.90;;;;;;5052803;28;19962;-59
2023/12/28 03:18:55;;;;;;;;;;;-1.30;99.90;;;;;;5056500;28;19928;-61
2023/12/28 03:21:23;;;;;;;;;;;-1.30;99.90;;;;;;5056970;28;19933;-58
2023/12/28 03:23:50;;;;;;;;;;;-1.30;99.90;;;;;;5061127;28;20279;-60
2023/12/28 03:26:17;;;;;;;;;;;-1.30;99.90;;;;;;5056628;28;20700;-64
2023/12/28 03:28:43;;;;;;;;;;;-1.30;99.90;;;;;;5052583;28;20306;-59
2023/12/28 03:31:11;;;;;;;;;;;-1.30;99.90;;;;;;5053892;28;19986;-60
2023/12/28 03:33:38;;;;;;;;;;;-1.20;99.90;;;;;;5054153;28;19939;-58
2023/12/28 03:36:06;;;;;;;;;;;-1.20;99.90;;;;;;5048612;28;19935;-60
2023/12/28 03:38:33;;;;;;;;;;;-1.20;99.90;;;;;;5049285;28;19929;-58
2023/12/28 03:41:00;;;;;;;;;;;-1.20;99.90;;;;;;5058063;28;19928;-59
2023/12/28 03:43:27;;;;;;;;;;;-1.20;99.90;;;;;;5060335;28;19990;-60
2023/12/28 03:45:54;;;;;;;;;;;-1.10;99.90;;;;;;5057147;28;19928;-60
2023/12/28 03:48:21;;;;;;;;;;;-1.10;99.90;;;;;;5058934;28;20314;-58
2023/12/28 03:50:49;;;;;;;;;;;-1.10;99.90;;;;;;5047720;28;19932;-67
2023/12/28 03:53:15;;;;;;;;;;;-1.00;99.90;;;;;;5055768;28;19932;-60
2023/12/28 03:55:42;;;;;;;;;;;-1.00;99.90;;;;;;5053334;28;19933;-59
2023/12/28 03:58:09;;;;;;;;;;;-1.00;99.90;;;;;;5047851;28;19976;-59
2023/12/28 04:00:36;;;;;;;;;;;-0.90;99.90;;;;;;5052041;28;19928;-64
2023/12/28 04:03:03;;;;;;;;;;;-0.90;99.90;;;;;;5052676;28;20018;-58
2023/12/28 04:05:30;;;;;;;;;;;-0.90;99.90;;;;;;5051420;28;19929;-60
2023/12/28 04:07:57;;;;;;;;;;;-0.90;99.90;;;;;;5054673;28;19933;-62
2023/12/28 04:10:31;;;;;;;;;;;-0.80;99.90;;;;;;5057289;28;20334;-58
2023/12/28 04:12:59;;;;;;;;;;;-0.80;99.90;;;;;;5053535;28;20035;-59
2023/12/28 04:15:26;;;;;;;;;;;-0.80;99.90;;;;;;5057428;28;19924;-57
2023/12/28 04:17:53;;;;;;;;;;;-0.80;99.90;;;;;;5053391;28;19929;-61
2023/12/28 04:20:20;;;;;;;;;;;-0.80;99.90;;;;;;5052690;28;19929;-61
2023/12/28 04:22:48;;;;;;;;;;;-0.80;99.90;;;;;;5046263;28;19947;-62
2023/12/28 04:25:16;;;;;;;;;;;-0.80;99.90;;;;;;5082253;28;21882;-60
2023/12/28 04:27:44;;;;;;;;;;;-0.80;99.90;;;;;;5089071;28;19935;-58
2023/12/28 04:30:13;;;;;;;;;;;-0.80;99.90;;;;;;5058914;28;19928;-60
2023/12/28 04:32:42;;;;;;;;;;;-0.80;99.90;;;;;;5064213;28;19936;-58
2023/12/28 04:35:08;;;;;;;;;;;-0.70;99.90;;;;;;5057832;28;19929;-60
2023/12/28 04:37:36;;;;;;;;;;;-0.70;99.90;;;;;;5054029;28;19928;-61
2023/12/28 04:40:03;;;;;;;;;;;-0.60;99.90;;;;;;5051437;28;19974;-62
2023/12/28 04:42:31;;;;;;;;;;;-0.60;99.90;;;;;;5057794;28;19925;-58
2023/12/28 04:44:58;;;;;;;;;;;-0.60;99.90;;;;;;5052537;28;20027;-66
2023/12/28 04:47:25;;;;;;;;;;;-0.60;99.90;;;;;;5049966;28;20432;-58
2023/12/28 04:49:52;;;;;;;;;;;-0.60;99.90;;;;;;5044509;28;19929;-64
2023/12/28 04:52:19;;;;;;;;;;;-0.50;99.90;;;;;;5056998;28;19933;-61
2023/12/28 04:54:45;;;;;;;;;;;-0.50;99.90;;;;;;5052045;28;20019;-61
2023/12/28 04:57:12;;;;;;;;;;;-0.40;99.90;;;;;;5057591;28;20239;-61
2023/12/28 04:59:40;;;;;;;;;;;-0.40;99.90;;;;;;5057954;28;20489;-57
2023/12/28 05:02:07;;;;;;;;;;;-0.40;99.90;;;;;;5053957;28;20366;-59
2023/12/28 05:04:37;;;;;;;;;;;-0.40;99.90;;;;;;5053994;28;19925;-57
2023/12/28 05:07:04;;;;;;;;;;;-0.40;99.90;;;;;;5051808;28;19928;-66
2023/12/28 05:09:31;;;;;;;;;;;-0.30;99.90;;;;;;5044909;28;19932;-59
2023/12/28 05:11:58;;;;;;;;;;;-0.30;99.90;;;;;;5043691;28;19929;-60
2023/12/28 05:14:24;;;;;;;;;;;-0.20;99.90;;;;;;5052930;28;20552;-63
2023/12/28 05:16:51;;;;;;;;;;;-0.30;99.90;;;;;;5060683;28;19924;-59
2023/12/28 05:19:18;;;;;;;;;;;-0.30;99.90;;;;;;5056537;28;19939;-60
2023/12/28 05:21:46;;;;;;;;;;;-0.20;99.90;;;;;;5051758;28;19928;-62
2023/12/28 05:24:13;;;;;;;;;;;-0.20;99.90;;;;;;5055655;28;20329;-58
2023/12/28 05:26:40;;;;;;;;;;;-0.10;99.90;;;;;;5050733;28;19925;-59
2023/12/28 05:29:07;;;;;;;;;;;-0.10;99.90;;;;;;5052494;28;19940;-65
2023/12/28 05:31:34;;;;;;;;;;;0.00;99.90;;;;;;5052395;28;19939;-60
2023/12/28 05:34:01;;;;;;;;;;;0.00;99.90;;;;;;5050457;28;19925;-60
2023/12/28 05:36:28;;;;;;;;;;;0.00;99.90;;;;;;5046414;28;19929;-58
2023/12/28 05:38:55;;;;;;;;;;;0.10;99.90;;;;;;5061711;28;20043;-60
2023/12/28 05:41:22;;;;;;;;;;;0.10;99.90;;;;;;5057566;28;20313;-60
2023/12/28 05:43:49;;;;;;;;;;;0.10;99.90;;;;;;5056271;28;19959;-58
2023/12/28 05:46:15;;;;;;;;;;;0.10;99.90;;;;;;5054043;28;19938;-63
2023/12/28 05:48:43;;;;;;;;;;;0.10;99.90;;;;;;5053211;28;19960;-60
2023/12/28 05:51:10;;;;;;;;;;;0.20;99.90;;;;;;5050524;28;19933;-59
2023/12/28 05:53:36;;;;;;;;;;;0.20;99.90;;;;;;5048145;28;20028;-59
2023/12/28 05:56:03;;;;;;;;;;;0.20;99.90;;;;;;5049938;28;20416;-58
2023/12/28 05:58:30;;;;;;;;;;;0.30;99.90;;;;;;5046540;28;20302;-61
2023/12/28 06:00:57;;;;;;;;;;;0.30;99.90;;;;;;5056106;28;19936;-61
2023/12/28 06:03:27;;;;;;;;;;;0.30;99.90;;;;;;5057314;28;19935;-58
2023/12/28 06:05:55;;;;;;;;;;;0.40;99.90;;;;;;5055006;28;19931;-64
2023/12/28 06:08:22;;;;;;;;;;;0.40;99.90;;;;;;5055652;28;19935;-59
2023/12/28 06:10:53;;;;;;;;;;;0.50;99.90;;;;;;5055257;28;19928;-60
2023/12/28 06:13:19;;;;;;;;;;;0.60;99.90;;;;;;5056272;28;19996;-62
2023/12/28 06:15:46;;;;;;;;;;;0.50;99.90;;;;;;5052666;28;20248;-59
2023/12/28 06:18:13;;;;;;;;;;;0.60;99.90;;;;;;5050811;28;20348;-60
2023/12/28 06:20:40;;;;;;;;;;;0.60;99.90;;;;;;5046735;28;19928;-61
2023/12/28 06:23:08;;;;;;;;;;;0.60;99.90;;;;;;5046662;28;20382;-58
2023/12/28 06:25:35;;;;;;;;;;;0.60;99.90;;;;;;5053626;28;19994;-60
2023/12/28 06:28:02;;;;;;;;;;;0.70;99.90;;;;;;5057254;28;20334;-59
2023/12/28 06:30:29;;;;;;;;;;;0.70;99.90;;;;;;5049785;28;19928;-58
2023/12/28 06:32:56;;;;;;;;;;;0.70;99.90;;;;;;5054010;28;19936;-61
2023/12/28 06:35:23;;;;;;;;;;;0.70;99.90;;;;;;5053167;28;19932;-64
2023/12/28 06:37:50;;;;;;;;;;;0.70;99.90;;;;;;5052732;28;20019;-61
2023/12/28 06:40:16;;;;;;;;;;;0.70;99.90;;;;;;5051921;28;19936;-63
2023/12/28 06:42:43;;;;;;;;;;;0.80;99.90;;;;;;5049162;28;20617;-68
2023/12/28 06:45:10;;;;;;;;;;;0.80;99.90;;;;;;5051281;28;20051;-59
2023/12/28 06:47:37;;;;;;;;;;;0.80;99.90;;;;;;5045872;28;19929;-59
2023/12/28 06:50:04;;;;;;;;;;;0.80;99.90;;;;;;5057659;28;19925;-65
2023/12/28 06:52:31;;;;;;;;;;;0.90;99.90;;;;;;5053190;28;19979;-58
2023/12/28 06:54:59;;;;;;;;;;;0.90;99.90;;;;;;5056506;28;19955;-58
2023/12/28 06:57:26;;;;;;;;;;;0.90;99.90;;;;;;5055032;28;19928;-64
2023/12/28 06:59:54;;;;;;;;;;;0.90;99.90;;;;;;5053672;28;19925;-59
2023/12/28 07:02:20;;;;;;;;;;;0.90;99.90;;;;;;5045023;28;19967;-62
2023/12/28 07:04:47;;;;;;;;;;;0.90;99.90;;;;;;5053569;28;20398;-61
2023/12/28 07:07:14;;;;;;;;;;;0.90;99.90;;;;;;5050943;28;19933;-61
2023/12/28 07:09:41;;;;;;;;;;;0.90;99.90;;;;;;5050976;28;20007;-60
2023/12/28 07:12:07;;;;;;;;;;;0.80;99.90;;;;;;5055036;28;19929;-59
2023/12/28 07:14:36;;;;;;;;;;;0.90;99.90;;;;;;5056562;28;19964;-61
2023/12/28 07:17:03;;;;;;;;;;;0.90;99.90;;;;;;5059568;28;20048;-60
2023/12/28 07:19:29;;;;;;;;;;;0.90;99.90;;;;;;5050903;28;20466;-58
2023/12/28 07:21:56;;;;;;;;;;;0.90;99.90;;;;;;5053898;28;19929;-63
2023/12/28 07:24:23;;;;;;;;;;;0.90;99.90;;;;;;5052127;28;19978;-66
2023/12/28 07:26:50;;;;;;;;;;;0.90;99.90;;;;;;5052383;28;19929;-58
2023/12/28 07:29:17;;;;;;;;;;;0.90;99.90;;;;;;5050768;28;19926;-61
2023/12/28 07:31:44;;;;;;;;;;;1.00;99.90;;;;;;5048502;28;20466;-62
2023/12/28 07:34:10;;;;;;;;;;;0.90;99.90;;;;;;5044389;28;19925;-60
2023/12/28 07:36:40;;;;;;;;;;;0.90;99.90;;;;;;5056384;28;19952;-59
2023/12/28 07:39:07;;;;;;;;;;;0.90;99.90;;;;;;5056005;28;19928;-61
2023/12/28 07:41:34;;;;;;;;;;;1.00;99.90;;;;;;5051635;28;19967;-66
2023/12/28 07:44:01;;;;;;;;;;;1.00;99.90;;;;;;5056380;28;19928;-59
2023/12/28 07:46:28;;;;;;;;;;;1.00;99.90;;;;;;5054258;28;19935;-62
2023/12/28 07:48:54;;;;;;;;;;;1.00;99.90;;;;;;5054468;28;19952;-60
2023/12/28 07:51:21;;;;;;;;;;;1.00;99.90;;;;;;5047029;28;20020;-59
2023/12/28 07:53:48;;;;;;;;;;;1.10;99.90;;;;;;5055933;28;19931;-60
2023/12/28 07:56:15;;;;;;;;;;;1.10;99.90;;;;;;5050317;28;19925;-59
2023/12/28 07:58:42;;;;;;;;;;;1.10;99.90;;;;;;5054353;28;20012;-62
2023/12/28 08:01:09;;;;;;;;;;;1.20;99.90;;;;;;5061014;28;19978;-63
2023/12/28 08:03:36;;;;;;;;;;;1.30;99.90;;;;;;5064407;28;19974;-61
2023/12/28 08:06:03;;;;;;;;;;;1.30;99.90;;;;;;5050082;28;19986;-62
2023/12/28 08:08:31;;;;;;;;;;;1.40;99.90;;;;;;5057600;28;19963;-58
2023/12/28 08:10:58;;;;;;;;;;;1.40;99.90;;;;;;5059160;28;19974;-59
2023/12/28 08:13:25;;;;;;;;;;;1.40;99.90;;;;;;5056615;28;20383;-58
2023/12/28 08:15:52;;;;;;;;;;;1.40;99.90;;;;;;5052495;28;19929;-64
2023/12/28 08:18:19;;;;;;;;;;;1.40;99.90;;;;;;5051456;28;19936;-64
2023/12/28 08:20:46;;;;;;;;;;;1.40;99.90;;;;;;5049731;28;19924;-58
2023/12/28 08:23:13;;;;;;;;;;;1.40;99.90;;;;;;5051684;28;19982;-58
2023/12/28 08:25:44;;;;;;;;;;;1.40;99.90;;;;;;5062719;28;20370;-65
2023/12/28 08:28:11;;;;;;;;;;;1.50;99.90;;;;;;5059921;28;19925;-58
2023/12/28 08:30:38;;;;;;;;;;;1.50;99.90;;;;;;5060469;28;19928;-59
2023/12/28 08:33:05;;;;;;;;;;;1.50;99.90;;;;;;5061477;28;19924;-65
2023/12/28 08:35:33;;;;;;;;;;;1.60;99.90;;;;;;5052240;28;20687;-63
2023/12/28 08:37:59;;;;;;;;;;;1.60;99.90;;;;;;5048760;28;19929;-62
2023/12/28 08:40:27;;;;;;;;;;;1.60;99.90;;;;;;5052034;28;19982;-59
2023/12/28 08:42:53;;;;;;;;;;;1.60;99.90;;;;;;5051196;28;19925;-58
2023/12/28 08:45:21;;;;;;;;;;;1.70;99.90;;;;;;5050972;28;20001;-59
2023/12/28 08:47:47;;;;;;;;;;;1.60;99.90;;;;;;5061699;28;19925;-62
2023/12/28 08:50:14;;;;;;;;;;;1.70;99.90;;;;;;5054652;28;19935;-60
2023/12/28 08:52:41;;;;;;;;;;;1.70;99.90;;;;;;5054930;28;19925;-58
2023/12/28 08:55:08;;;;;;;;;;;1.70;99.90;;;;;;5052682;28;20293;-59
2023/12/28 08:57:35;;;;;;;;;;;1.70;99.90;;;;;;5055567;28;19955;-59
2023/12/28 09:00:10;;;;;;;;;;;1.70;99.90;;;;;;5052915;28;19935;-59
2023/12/28 09:02:37;;;;;;;;;;;1.70;99.90;;;;;;5051510;28;19968;-59
2023/12/28 09:05:04;;;;;;;;;;;1.80;99.90;;;;;;5050332;28;20065;-63
2023/12/28 09:07:31;;;;;;;;;;;1.80;99.90;;;;;;5055516;28;20375;-58
2023/12/28 09:09:58;;;;;;;;;;;1.80;99.90;;;;;;5051525;28;19960;-63
2023/12/28 09:12:25;;;;;;;;;;;1.80;99.90;;;;;;5057637;28;19934;-63
2023/12/28 09:14:52;;;;;;;;;;;1.80;99.90;;;;;;5058781;28;19936;-59
2023/12/28 09:17:22;;;;;;;;;;;1.80;99.90;;;;;;5061258;28;19928;-66
2023/12/28 09:19:49;;;;;;;;;;;1.90;99.90;;;;;;5051097;28;19925;-61
2023/12/28 09:22:16;;;;;;;;;;;1.90;99.90;;;;;;5056273;28;19968;-59
2023/12/28 09:24:43;;;;;;;;;;;1.90;99.90;;;;;;5051748;28;20005;-60
2023/12/28 09:27:10;;;;;;;;;;;1.90;99.90;;;;;;5048999;28;19935;-66
2023/12/28 09:29:37;;;;;;;;;;;2.00;99.90;;;;;;5052696;28;19924;-59
2023/12/28 09:32:04;;;;;;;;;;;2.00;99.90;;;;;;5049630;28;19947;-61
2023/12/28 09:34:31;;;;;;;;;;;2.00;99.90;;;;;;5059648;28;19938;-61
2023/12/28 09:36:58;;;;;;;;;;;2.00;99.90;;;;;;5060190;28;20023;-62
2023/12/28 09:39:25;;;;;;;;;;;2.00;99.90;;;;;;5057639;28;19934;-66
2023/12/28 09:41:58;;;;;;;;;;;2.10;99.90;;;;;;5052008;28;20016;-61
2023/12/28 09:44:25;;;;;;;;;;;2.10;99.90;;;;;;5052393;28;19947;-61
2023/12/28 09:46:55;;;;;;;;;;;2.20;99.90;;;;;;5050700;28;20440;-61
2023/12/28 09:49:22;;;;;;;;;;;2.20;99.90;;;;;;5050013;28;19928;-65
2023/12/28 09:51:49;;;;;;;;;;;2.20;99.90;;;;;;5050353;28;19931;-61
2023/12/28 09:54:18;;;;;;;;;;;2.30;99.90;;;;;;5046336;28;19933;-62
2023/12/28 09:56:45;;;;;;;;;;;2.30;99.90;;;;;;5056025;28;19932;-66
2023/12/28 09:59:13;;;;;;;;;;;2.30;99.90;;;;;;5053637;28;19972;-59
2023/12/28 10:01:40;;;;;;;;;;;2.30;99.90;;;;;;5057208;28;20414;-61
2023/12/28 10:04:08;;;;;;;;;;;2.40;99.90;;;;;;5055055;28;19929;-61
2023/12/28 10:06:35;;;;;;;;;;;2.40;99.90;;;;;;5047222;28;19939;-59
2023/12/28 10:09:02;;;;;;;;;;;2.40;99.90;;;;;;5052242;28;20019;-60
2023/12/28 10:11:29;;;;;;;;;;;2.40;99.90;;;;;;5053017;28;19933;-59
2023/12/28 10:13:57;;;;;;;;;;;2.40;99.90;;;;;;5048604;28;19936;-60
2023/12/28 10:16:24;;;;;;;;;;;2.40;99.90;;;;;;5048439;28;19933;-59
2023/12/28 10:18:52;;;;;;;;;;;2.50;99.90;;;;;;5048007;28;19960;-61
2023/12/28 10:21:19;;;;;;;;;;;2.50;99.90;;;;;;5057091;28;19936;-62
2023/12/28 10:23:46;;;;;;;;;;;2.60;99.90;;;;;;5056985;28;20763;-62
2023/12/28 10:26:13;;;;;;;;;;;2.60;99.90;;;;;;5054764;28;19929;-60
2023/12/28 10:28:39;;;;;;;;;;;2.70;99.90;;;;;;5050209;28;19928;-68
2023/12/28 10:31:07;;;;;;;;;;;2.70;99.90;;;;;;5052187;28;19924;-60
2023/12/28 10:33:38;;;;;;;;;;;2.80;99.90;;;;;;5054539;28;19932;-62
2023/12/28 10:36:06;;;;;;;;;;;2.80;99.90;;;;;;5049115;28;19936;-59
2023/12/28 10:38:35;;;;;;;;;;;2.90;99.90;;;;;;5051416;28;19929;-59
2023/12/28 10:41:04;;;;;;;;;;;3.00;99.90;;;;;;5047191;28;20378;-59
2023/12/28 10:43:31;;;;;;;;;;;3.10;99.90;;;;;;5047947;28;19935;-64
2023/12/28 10:45:58;;;;;;;;;;;3.10;99.90;;;;;;5053105;28;19964;-62
2023/12/28 10:48:30;;;;;;;;;;;3.20;99.90;;;;;;5052916;28;19965;-61
2023/12/28 10:50:58;;;;;;;;;;;3.30;99.90;;;;;;5056224;28;19925;-58
2023/12/28 10:53:25;;;;;;;;;;;3.40;99.90;;;;;;5053730;28;19976;-59
2023/12/28 10:56:05;;;;;;;;;;;3.50;99.90;;;;;;5047276;28;19929;-61
2023/12/28 10:58:47;;;;;;;;;;;3.60;99.90;;;;;;5050453;28;19929;-63
2023/12/28 11:01:21;;;;;;;;;;;3.70;99.90;;;;;;5045945;28;20389;-60
2023/12/28 11:03:52;;;;;;;;;;;3.90;99.90;;;;;;5045332;28;19936;-64
2023/12/28 11:06:20;;;;;;;;;;;4.00;99.90;;;;;;5045984;28;19932;-58
2023/12/28 11:08:51;;;;;;;;;;;4.10;99.90;;;;;;5055704;28;19925;-64
2023/12/28 11:11:18;;;;;;;;;;;4.10;99.90;;;;;;5050442;28;19929;-59
2023/12/28 11:13:46;;;;;;;;;;;4.20;99.90;;;;;;5056692;28;20377;-59
2023/12/28 11:16:14;;;;;;;;;;;4.20;99.90;;;;;;5056188;28;20317;-60
2023/12/28 11:18:41;;;;;;;;;;;4.20;99.90;;;;;;5051748;28;20306;-59
2023/12/28 11:21:08;;;;;;;;;;;4.30;99.90;;;;;;5048445;28;19936;-62
2023/12/28 11:23:36;;;;;;;;;;;4.30;99.90;;;;;;5049007;28;19929;-59
2023/12/28 11:26:03;;;;;;;;;;;4.30;99.90;;;;;;5046977;28;19933;-64
2023/12/28 11:28:30;;;;;;;;;;;4.40;99.90;;;;;;5051733;28;20325;-61
2023/12/28 11:30:57;;;;;;;;;;;4.50;99.90;;;;;;5058089;28;19933;-65
2023/12/28 11:33:30;;;;;;;;;;;4.60;99.90;;;;;;5057112;28;19977;-62
2023/12/28 11:35:57;;;;;;;;;;;4.60;99.90;;;;;;5058577;28;20524;-62
2023/12/28 11:38:25;;;;;;;;;;;4.70;99.90;;;;;;5059707;28;20075;-59
2023/12/28 11:40:54;;;;;;;;;;;4.80;99.90;;;;;;5057069;28;19978;-60
2023/12/28 11:43:21;;;;;;;;;;;4.80;99.90;;;;;;5056185;28;19940;-61
2023/12/28 11:45:55;;;;;;;;;;;4.80;99.90;;;;;;5057061;28;19925;-61
2023/12/28 11:48:23;;;;;;;;;;;4.80;99.90;;;;;;5053811;28;20194;-61
2023/12/28 11:50:51;;;;;;;;;;;4.80;99.90;;;;;;5047045;28;19981;-64
2023/12/28 11:53:19;;;;;;;;;;;4.80;99.90;;;;;;5053190;28;19933;-64
2023/12/28 11:55:45;;;;;;;;;;;4.70;99.90;;;;;;5062172;28;19925;-59
2023/12/28 11:58:12;;;;;;;;;;;4.70;99.90;;;;;;5053692;28;20019;-65
2023/12/28 12:00:41;;;;;;;;;;;4.70;99.90;;;;;;5057837;28;19929;-61
2023/12/28 12:03:11;;;;;;;;;;;4.70;99.90;;;;;;5056702;28;19928;-59
2023/12/28 12:05:38;;;;;;;;;;;4.70;99.90;;;;;;5052286;28;19996;-60
2023/12/28 12:08:06;;;;;;;;;;;4.60;99.90;;;;;;5054871;28;19929;-62
2023/12/28 12:10:32;;;;;;;;;;;4.60;99.90;;;;;;5054864;28;19924;-58
2023/12/28 12:12:59;;;;;;;;;;;4.60;99.90;;;;;;5053337;28;20179;-61
2023/12/28 12:15:28;;;;;;;;;;;4.70;99.90;;;;;;5053765;28;19963;-59
2023/12/28 12:17:55;;;;;;;;;;;4.60;99.90;;;;;;5058334;28;19929;-63
2023/12/28 12:20:23;;;;;;;;;;;4.70;99.90;;;;;;5057176;28;20248;-68
2023/12/28 12:22:50;;;;;;;;;;;4.60;99.90;;;;;;5052047;28;19924;-62
2023/12/28 12:25:19;;;;;;;;;;;4.70;99.90;;;;;;5054571;28;19932;-65
2023/12/28 12:27:46;;;;;;;;;;;4.70;99.90;;;;;;5056520;28;20302;-66
2023/12/28 12:30:13;;;;;;;;;;;4.70;99.90;;;;;;5056643;28;19955;-61
2023/12/28 12:32:42;;;;;;;;;;;4.70;99.90;;;;;;5052025;28;19929;-60
2023/12/28 12:35:11;;;;;;;;;;;4.70;99.90;;;;;;5050250;28;19933;-58
2023/12/28 12:37:38;;;;;;;;;;;4.70;99.90;;;;;;5046438;28;20301;-59
2023/12/28 12:40:05;;;;;;;;;;;4.70;99.90;;;;;;5049879;28;19933;-58
2023/12/28 12:42:34;;;;;;;;;;;4.80;99.90;;;;;;5065189;28;20324;-58
2023/12/28 12:45:01;;;;;;;;;;;4.80;99.90;;;;;;5057719;28;19929;-59
2023/12/28 12:47:32;;;;;;;;;;;4.80;99.90;;;;;;5060987;28;20721;-62
2023/12/28 12:50:01;;;;;;;;;;;4.90;99.90;;;;;;5054096;28;19940;-60
2023/12/28 12:52:28;;;;;;;;;;;4.90;99.90;;;;;;5051370;28;19968;-63
2023/12/28 12:54:58;;;;;;;;;;;4.90;99.90;;;;;;5057026;28;19928;-66
2023/12/28 12:57:26;;;;;;;;;;;4.90;99.90;;;;;;5050898;28;19924;-61
2023/12/28 12:59:53;;;;;;;;;;;5.00;99.90;;;;;;5053110;28;19933;-58
2023/12/28 13:02:24;;;;;;;;;;;5.00;99.90;;;;;;5049775;28;19925;-65
2023/12/28 13:04:52;;;;;;;;;;;5.00;99.90;;;;;;5050868;28;19929;-62
2023/12/28 13:07:19;;;;;;;;;;;5.10;99.90;;;;;;5052746;28;20309;-59
2023/12/28 13:09:46;;;;;;;;;;;5.10;99.90;;;;;;5057210;28;20384;-58
2023/12/28 13:12:12;;;;;;;;;;;5.10;99.90;;;;;;5056491;28;19925;-59
2023/12/28 13:14:40;;;;;;;;;;;5.20;99.90;;;;;;5056194;28;20049;-63
2023/12/28 13:17:06;;;;;;;;;;;5.30;99.90;;;;;;5051836;28;19979;-60
2023/12/28 13:19:33;;;;;;;;;;;5.30;99.90;;;;;;5050532;28;19948;-61
2023/12/28 13:22:00;;;;;;;;;;;5.30;99.90;;;;;;5052694;28;19929;-61
2023/12/28 13:24:28;;;;;;;;;;;5.30;99.90;;;;;;5045726;28;19962;-58
2023/12/28 13:26:54;;;;;;;;;;;5.40;99.90;;;;;;5049812;28;19929;-60
2023/12/28 13:29:21;;;;;;;;;;;5.40;99.90;;;;;;5056980;28;19932;-63
2023/12/28 13:31:50;;;;;;;;;;;5.40;99.90;;;;;;5056380;28;20345;-60
2023/12/28 13:34:19;;;;;;;;;;;5.50;99.90;;;;;;5060170;28;19935;-60
2023/12/28 13:36:46;;;;;;;;;;;5.50;99.90;;;;;;5054478;28;19933;-58
2023/12/28 13:39:14;;;;;;;;;;;5.50;99.90;;;;;;5058089;28;19943;-61
2023/12/28 13:41:41;;;;;;;;;;;5.50;99.90;;;;;;5048713;28;20307;-58
2023/12/28 13:44:12;;;;;;;;;;;5.50;99.90;;;;;;5053785;28;20023;-60
2023/12/28 13:46:39;;;;;;;;;;;5.50;99.90;;;;;;5048551;28;19935;-61
2023/12/28 13:49:07;;;;;;;;;;;5.40;99.90;;;;;;5047386;28;19924;-58
2023/12/28 13:51:35;;;;;;;;;;;5.50;99.90;;;;;;5048342;28;19968;-63
2023/12/28 13:54:02;;;;;;;;;;;5.50;99.90;;;;;;5062896;28;20011;-65
2023/12/28 13:56:32;;;;;;;;;;;5.50;99.90;;;;;;5050348;28;20027;-58
2023/12/28 13:58:59;;;;;;;;;;;5.50;99.90;;;;;;5056794;28;19935;-58
2023/12/28 14:01:26;;;;;;;;;;;5.50;99.90;;;;;;5052226;28;20740;-61
2023/12/28 14:03:53;;;;;;;;;;;5.50;99.90;;;;;;5056434;28;20015;-58
2023/12/28 14:06:20;;;;;;;;;;;5.50;99.90;;;;;;5050110;28;19972;-60
2023/12/28 14:08:47;;;;;;;;;;;5.50;99.90;;;;;;5051486;28;19929;-61
2023/12/28 14:11:14;;;;;;;;;;;5.50;99.90;;;;;;5050176;28;19928;-58
2023/12/28 14:13:40;;;;;;;;;;;5.50;99.90;;;;;;5046283;28;19960;-58
2023/12/28 14:16:08;;;;;;;;;;;5.50;99.90;;;;;;5058765;28;19928;-59
2023/12/28 14:18:40;;;;;;;;;;;5.50;99.90;;;;;;5051085;28;20860;-62
2023/12/28 14:21:07;;;;;;;;;;;5.50;99.90;;;;;;5049770;28;20319;-66
2023/12/28 14:23:34;;;;;;;;;;;5.50;99.90;;;;;;5055811;28;19968;-58
2023/12/28 14:26:02;;;;;;;;;;;5.50;99.90;;;;;;5051807;28;19928;-60
2023/12/28 14:28:31;;;;;;;;;;;5.50;99.90;;;;;;5050978;28;20259;-60